createdAt,value
2022-10-17T00:05:02.293Z,15.70
2022-10-17T00:10:07.233Z,15.70
2022-10-17T00:15:16.247Z,15.70
2022-10-17T00:20:20.028Z,15.70
2022-10-17T00:25:23.804Z,15.70
2022-10-17T00:30:28.773Z,15.70
2022-10-17T00:35:32.485Z,15.70
2022-10-17T00:40:36.112Z,15.70
2022-10-17T00:45:41.310Z,15.70
2022-10-17T00:50:51.058Z,15.70
2022-10-17T00:55:55.749Z,15.70
2022-10-17T01:01:00.823Z,15.70
2022-10-17T01:06:04.716Z,15.70
2022-10-17T01:11:21.467Z,15.80
2022-10-17T01:16:38.749Z,15.70
2022-10-17T01:21:51.392Z,15.70
2022-10-17T01:27:14.126Z,15.70
2022-10-17T01:32:24.765Z,15.70
2022-10-17T01:37:33.651Z,15.70
2022-10-17T01:42:43.531Z,15.80
2022-10-17T01:47:51.597Z,15.80
2022-10-17T01:53:00.420Z,15.80
2022-10-17T01:58:08.811Z,15.80
2022-10-17T02:03:16.727Z,15.80
2022-10-17T02:08:28.314Z,15.80
2022-10-17T02:13:47.933Z,15.80
2022-10-17T02:19:09.939Z,15.80
2022-10-17T02:24:22.225Z,15.80
2022-10-17T02:29:32.533Z,15.70
2022-10-17T02:34:43.632Z,15.70
2022-10-17T02:39:49.384Z,15.80
2022-10-17T02:44:56.169Z,15.80
2022-10-17T02:50:01.266Z,15.70
2022-10-17T02:55:10.905Z,15.70
2022-10-17T03:00:17.748Z,15.70
2022-10-17T03:05:27.095Z,15.70
2022-10-17T03:10:30.881Z,15.70
2022-10-17T03:15:35.043Z,15.70
2022-10-17T03:20:40.258Z,15.70
2022-10-17T03:25:43.971Z,15.70
2022-10-17T03:30:50.794Z,15.80
2022-10-17T03:35:55.935Z,15.70
2022-10-17T03:40:59.736Z,15.80
2022-10-17T03:46:04.632Z,15.70
2022-10-17T03:51:11.579Z,15.70
2022-10-17T03:56:22.916Z,15.70
2022-10-17T04:01:46.311Z,15.80
2022-10-17T04:06:51.689Z,15.80
2022-10-17T04:11:55.937Z,15.80
2022-10-17T04:17:00.384Z,15.80
2022-10-17T04:22:08.508Z,15.80
2022-10-17T04:27:14.763Z,15.80
2022-10-17T04:32:21.881Z,15.90
2022-10-17T04:37:35.936Z,16.00
2022-10-17T04:42:46.532Z,15.90
2022-10-17T04:47:54.569Z,16.00
2022-10-17T04:53:00.450Z,16.00
2022-10-17T04:58:04.222Z,16.10
2022-10-17T05:03:09.277Z,16.10
2022-10-17T05:08:14.675Z,16.20
2022-10-17T05:13:18.623Z,16.20
2022-10-17T05:18:22.346Z,16.30
2022-10-17T05:23:27.458Z,16.30
2022-10-17T05:28:31.202Z,16.40
2022-10-17T05:33:38.288Z,16.40
2022-10-17T05:38:43.574Z,16.40
2022-10-17T05:43:50.348Z,16.40
2022-10-17T05:48:58.433Z,16.40
2022-10-17T05:54:05.922Z,16.50
2022-10-17T05:59:10.037Z,16.50
2022-10-17T06:04:27.856Z,16.60
2022-10-17T06:09:33.569Z,16.60
2022-10-17T06:14:38.848Z,16.60
2022-10-17T06:19:44.867Z,16.60
2022-10-17T06:24:52.663Z,16.70
2022-10-17T06:29:56.638Z,16.70
2022-10-17T06:35:00.400Z,16.70
2022-10-17T06:40:08.990Z,16.80
2022-10-17T06:45:13.738Z,16.80
2022-10-17T06:50:59.373Z,16.80
2022-10-17T06:56:07.021Z,16.90
2022-10-17T07:01:37.392Z,16.90
2022-10-17T07:06:42.181Z,16.90
2022-10-17T07:11:55.691Z,16.90
2022-10-17T07:17:00.342Z,17.00
2022-10-17T07:22:06.369Z,17.00
2022-10-17T07:27:13.714Z,17.00
2022-10-17T07:32:17.501Z,17.00
2022-10-17T07:37:21.834Z,17.00
2022-10-17T07:42:32.343Z,17.10
2022-10-17T07:47:36.269Z,17.10
2022-10-17T07:52:43.529Z,17.00
2022-10-17T07:57:48.633Z,17.00
2022-10-17T08:02:52.312Z,16.90
2022-10-17T08:07:56.117Z,16.90
2022-10-17T08:13:01.114Z,16.90
2022-10-17T08:18:04.740Z,16.90
2022-10-17T08:23:08.540Z,16.90
2022-10-17T08:28:13.600Z,16.90
2022-10-17T08:33:17.303Z,16.90
2022-10-17T08:38:21.310Z,16.90
2022-10-17T08:43:37.849Z,16.90
2022-10-17T08:48:46.650Z,16.90
2022-10-17T08:53:55.515Z,16.90
2022-10-17T08:59:00.738Z,16.80
2022-10-17T09:04:29.590Z,16.90
2022-10-17T09:09:41.308Z,16.90
2022-10-17T09:15:20.291Z,16.90
2022-10-17T09:20:28.521Z,16.90
2022-10-17T09:25:43.561Z,16.80
2022-10-17T09:30:50.396Z,16.80
2022-10-17T09:35:56.886Z,16.90
2022-10-17T09:41:04.732Z,16.90
2022-10-17T09:46:26.552Z,16.90
2022-10-17T09:51:32.151Z,16.90
2022-10-17T09:56:58.970Z,16.90
2022-10-17T10:02:09.365Z,16.90
2022-10-17T10:07:14.643Z,16.90
2022-10-17T10:12:21.057Z,16.90
2022-10-17T10:17:34.530Z,16.90
2022-10-17T10:22:39.605Z,16.90
2022-10-17T10:27:45.205Z,17.00
2022-10-17T10:32:50.610Z,17.00
2022-10-17T10:37:57.689Z,17.00
2022-10-17T10:43:05.338Z,17.00
2022-10-17T10:48:20.659Z,17.00
2022-10-17T10:53:37.282Z,17.00
2022-10-17T10:58:54.243Z,17.00
2022-10-17T11:04:10.873Z,17.00
2022-10-17T11:09:35.638Z,17.00
2022-10-17T11:14:44.517Z,17.00
2022-10-17T11:19:53.437Z,17.10
2022-10-17T11:25:02.168Z,17.00
2022-10-17T11:30:07.421Z,17.00
2022-10-17T11:35:20.755Z,17.10
2022-10-17T11:40:31.958Z,17.10
2022-10-17T11:45:46.407Z,17.10
2022-10-17T11:56:30.568Z,17.10
2022-10-17T12:01:40.075Z,17.20
2022-10-17T12:07:01.233Z,17.20
2022-10-17T12:12:06.520Z,17.20
2022-10-17T12:17:33.097Z,17.20
2022-10-17T12:22:37.216Z,17.20
2022-10-17T12:27:47.427Z,17.30
2022-10-17T12:33:06.168Z,17.30
2022-10-17T12:38:22.599Z,17.30
2022-10-17T12:43:57.990Z,17.30
2022-10-17T12:49:20.238Z,17.30
2022-10-17T12:54:24.300Z,17.40
2022-10-17T12:59:30.628Z,17.40
2022-10-17T13:04:38.306Z,17.40
2022-10-17T13:09:45.134Z,17.40
2022-10-17T13:14:52.672Z,17.40
2022-10-17T13:19:56.855Z,17.40
2022-10-17T13:25:09.616Z,17.40
2022-10-17T13:30:29.499Z,17.40
2022-10-17T13:41:33.755Z,17.40
2022-10-17T13:46:39.009Z,17.40
2022-10-17T13:51:45.935Z,17.50
2022-10-17T13:56:57.144Z,17.50
2022-10-17T14:02:02.884Z,17.50
2022-10-17T14:07:07.641Z,17.60
2022-10-17T14:12:13.682Z,17.60
2022-10-17T14:17:25.008Z,17.60
2022-10-17T14:22:30.363Z,17.60
2022-10-17T14:27:36.505Z,17.60
2022-10-17T14:32:44.657Z,17.70
2022-10-17T14:37:51.395Z,17.70
2022-10-17T14:42:57.336Z,17.70
2022-10-17T14:48:05.829Z,17.70
2022-10-17T14:53:22.418Z,17.70
2022-10-17T14:58:28.760Z,17.70
2022-10-17T15:03:33.983Z,17.70
2022-10-17T15:08:37.769Z,17.70
2022-10-17T15:13:45.615Z,17.70
2022-10-17T15:18:51.394Z,17.70
2022-10-17T15:23:55.156Z,17.70
2022-10-17T15:28:59.090Z,17.80
2022-10-17T15:34:04.196Z,17.70
2022-10-17T15:39:07.885Z,17.70
2022-10-17T15:44:12.008Z,17.70
2022-10-17T15:49:19.760Z,17.70
2022-10-17T15:54:23.463Z,17.70
2022-10-17T15:59:31.569Z,17.70
2022-10-17T16:04:36.765Z,17.70
2022-10-17T16:09:40.470Z,17.60
2022-10-17T16:14:44.201Z,17.70
2022-10-17T16:19:50.031Z,17.70
2022-10-17T16:24:58.380Z,17.60
2022-10-17T16:30:02.319Z,17.60
2022-10-17T16:35:08.742Z,17.60
2022-10-17T16:40:13.149Z,17.60
2022-10-17T16:45:19.360Z,17.60
2022-10-17T16:50:24.487Z,17.50
2022-10-17T16:55:28.261Z,17.50
2022-10-17T17:00:31.944Z,17.50
2022-10-17T17:05:36.980Z,17.50
2022-10-17T17:10:45.802Z,17.40
2022-10-17T17:15:53.718Z,17.40
2022-10-17T17:21:01.051Z,17.40
2022-10-17T17:26:08.353Z,17.30
2022-10-17T17:31:14.462Z,17.30
2022-10-17T17:36:21.285Z,17.30
2022-10-17T17:41:24.922Z,17.20
2022-10-17T17:46:29.139Z,17.20
2022-10-17T17:51:37.695Z,17.20
2022-10-17T17:56:41.478Z,17.20
2022-10-17T18:01:45.368Z,17.20
2022-10-17T18:06:50.419Z,17.20
2022-10-17T18:11:54.107Z,17.20
2022-10-17T18:16:57.791Z,17.20
2022-10-17T18:22:02.741Z,17.10
2022-10-17T18:27:06.512Z,17.10
2022-10-17T18:32:10.898Z,17.10
2022-10-17T18:37:16.139Z,17.10
2022-10-17T18:42:20.477Z,17.10
2022-10-17T18:47:24.217Z,17.00
2022-10-17T18:52:29.248Z,17.00
2022-10-17T18:57:33.029Z,17.00
2022-10-17T19:02:38.053Z,17.00
2022-10-17T19:07:43.231Z,17.00
2022-10-17T19:12:46.893Z,17.00
2022-10-17T19:17:50.552Z,16.90
2022-10-17T19:22:55.961Z,16.90
2022-10-17T19:27:59.984Z,16.90
2022-10-17T19:33:03.663Z,16.90
2022-10-17T19:38:08.935Z,16.90
2022-10-17T19:43:12.603Z,16.90
2022-10-17T19:48:16.236Z,16.80
2022-10-17T19:53:23.921Z,16.90
2022-10-17T19:58:28.341Z,16.80
2022-10-17T20:03:32.143Z,16.80
2022-10-17T20:08:38.371Z,16.80
2022-10-17T20:13:42.393Z,16.80
2022-10-17T20:18:46.113Z,16.80
2022-10-17T20:23:51.626Z,16.80
2022-10-17T20:28:55.822Z,16.80
2022-10-17T20:34:00.862Z,16.80
2022-10-17T20:39:07.279Z,16.80
2022-10-17T20:44:12.035Z,16.90
2022-10-17T20:49:17.754Z,16.80
2022-10-17T20:54:22.849Z,16.80
2022-10-17T20:59:28.115Z,16.80
2022-10-17T21:04:47.901Z,16.80
2022-10-17T21:09:52.925Z,16.80
2022-10-17T21:14:56.632Z,16.80
2022-10-17T21:20:00.270Z,16.70
2022-10-17T21:25:05.644Z,16.80
2022-10-17T21:30:09.965Z,16.80
2022-10-17T21:35:13.647Z,16.70
2022-10-17T21:40:18.859Z,16.70
2022-10-17T21:45:25.784Z,16.70
2022-10-17T21:50:29.757Z,16.70
2022-10-17T21:55:37.437Z,16.70
2022-10-17T22:00:41.055Z,16.70
2022-10-17T22:05:46.097Z,16.60
2022-10-17T22:10:51.155Z,16.60
2022-10-17T22:15:59.659Z,16.60
2022-10-17T22:21:04.003Z,16.60
2022-10-17T22:26:10.575Z,16.60
2022-10-17T22:31:14.343Z,16.60
2022-10-17T22:36:18.250Z,16.60
2022-10-17T22:41:23.538Z,16.60
2022-10-17T22:46:27.621Z,16.60
2022-10-17T22:51:31.304Z,16.50
2022-10-17T22:56:36.420Z,16.50
2022-10-17T23:01:40.136Z,16.50
2022-10-17T23:06:43.855Z,16.50
2022-10-17T23:11:48.842Z,16.50
2022-10-17T23:16:52.498Z,16.50
2022-10-17T23:21:56.089Z,16.40
2022-10-17T23:27:01.074Z,16.50
2022-10-17T23:32:04.786Z,16.40
2022-10-17T23:37:08.436Z,16.30
2022-10-17T23:42:13.433Z,16.40
2022-10-17T23:47:17.100Z,16.40
2022-10-17T23:52:20.778Z,16.30
2022-10-17T23:57:25.862Z,16.30
